createdAt,value
2018-08-04T00:00:52.530Z,30.30
2018-08-04T00:03:21.495Z,30.30
2018-08-04T00:05:50.472Z,30.30
2018-08-04T00:08:19.427Z,30.30
2018-08-04T00:10:48.372Z,30.30
2018-08-04T00:13:17.304Z,30.30
2018-08-04T00:15:46.282Z,30.20
2018-08-04T00:18:15.247Z,30.20
2018-08-04T00:20:44.232Z,30.20
2018-08-04T00:23:13.184Z,30.20
2018-08-04T00:25:42.124Z,30.10
2018-08-04T00:28:11.065Z,30.10
2018-08-04T00:30:40.037Z,30.10
2018-08-04T00:33:08.974Z,30.00
2018-08-04T00:35:37.970Z,30.00
2018-08-04T00:38:06.945Z,30.00
2018-08-04T00:40:35.923Z,29.90
2018-08-04T00:43:04.930Z,29.90
2018-08-04T00:45:33.874Z,29.90
2018-08-04T00:48:02.878Z,29.90
2018-08-04T00:50:31.845Z,29.90
2018-08-04T00:53:00.813Z,29.90
2018-08-04T00:55:29.773Z,29.80
2018-08-04T00:57:58.768Z,29.80
2018-08-04T01:00:27.973Z,29.80
2018-08-04T01:02:56.937Z,29.80
2018-08-04T01:05:25.922Z,29.80
2018-08-04T01:07:55.247Z,29.70
2018-08-04T01:10:24.201Z,29.70
2018-08-04T01:12:53.226Z,29.70
2018-08-04T01:15:22.209Z,29.60
2018-08-04T01:17:51.212Z,29.60
2018-08-04T01:20:20.135Z,29.60
2018-08-04T01:22:49.154Z,29.50
2018-08-04T01:25:18.123Z,29.50
2018-08-04T01:27:47.140Z,29.50
2018-08-04T01:30:16.108Z,29.50
2018-08-04T01:32:45.126Z,29.50
2018-08-04T01:35:14.069Z,29.50
2018-08-04T01:37:43.089Z,29.50
2018-08-04T01:40:12.034Z,29.40
2018-08-04T01:42:40.981Z,29.40
2018-08-04T01:45:09.970Z,29.40
2018-08-04T01:47:38.986Z,29.40
2018-08-04T01:50:08.007Z,29.30
2018-08-04T01:55:05.573Z,29.30
2018-08-04T01:57:34.606Z,29.30
2018-08-04T02:00:03.570Z,29.30
2018-08-04T02:05:01.030Z,29.30
2018-08-04T02:07:30.066Z,29.20
2018-08-04T02:09:59.029Z,29.20
2018-08-04T02:14:56.639Z,29.10
2018-08-04T02:17:25.603Z,29.10
2018-08-04T02:19:54.570Z,29.10
2018-08-04T02:22:23.608Z,29.00
2018-08-04T02:24:52.541Z,29.00
2018-08-04T02:27:21.694Z,29.00
2018-08-04T02:29:50.679Z,29.00
2018-08-04T02:32:19.673Z,29.00
2018-08-04T02:34:48.598Z,29.00
2018-08-04T02:37:17.647Z,28.90
2018-08-04T02:39:46.582Z,29.00
2018-08-04T02:42:15.559Z,28.90
2018-08-04T02:44:44.542Z,28.90
2018-08-04T02:47:13.523Z,28.80
2018-08-04T02:49:42.482Z,28.80
2018-08-04T02:52:11.450Z,28.80
2018-08-04T02:54:40.390Z,28.70
2018-08-04T02:57:09.370Z,28.70
2018-08-04T02:59:38.315Z,28.70
2018-08-04T03:02:07.447Z,28.70
2018-08-04T03:04:36.407Z,28.70
2018-08-04T03:07:05.395Z,28.70
2018-08-04T03:09:34.431Z,28.70
2018-08-04T03:12:03.442Z,28.70
2018-08-04T03:14:32.386Z,28.60
2018-08-04T03:19:29.884Z,28.60
2018-08-04T03:21:58.839Z,28.60
2018-08-04T03:24:27.831Z,28.50
2018-08-04T03:26:56.777Z,28.40
2018-08-04T03:29:25.798Z,28.40
2018-08-04T03:31:55.281Z,28.40
2018-08-04T03:34:24.348Z,28.40
2018-08-04T03:36:53.331Z,28.40
2018-08-04T03:39:22.323Z,28.40
2018-08-04T03:41:51.366Z,28.30
2018-08-04T03:44:20.399Z,28.30
2018-08-04T03:46:49.363Z,28.30
2018-08-04T03:49:18.329Z,28.20
2018-08-04T03:51:47.269Z,28.10
2018-08-04T03:54:16.234Z,28.10
2018-08-04T03:56:45.178Z,28.10
2018-08-04T03:59:14.149Z,28.00
2018-08-04T04:01:43.087Z,28.00
2018-08-04T04:04:12.062Z,28.00
2018-08-04T04:06:41.094Z,27.90
2018-08-04T04:09:11.094Z,27.90
2018-08-04T04:11:40.054Z,27.90
2018-08-04T04:14:09.054Z,27.80
2018-08-04T04:16:38.011Z,27.80
2018-08-04T04:19:07.015Z,27.80
2018-08-04T04:21:36.004Z,27.80
2018-08-04T04:24:05.029Z,27.80
2018-08-04T04:29:03.081Z,27.80
2018-08-04T04:31:32.035Z,27.80
2018-08-04T04:34:01.178Z,27.80
2018-08-04T04:36:30.162Z,27.80
2018-08-04T04:38:59.125Z,27.80
2018-08-04T04:41:28.066Z,27.80
2018-08-04T04:43:57.060Z,27.80
2018-08-04T04:46:26.013Z,27.80
2018-08-04T04:48:55.065Z,27.80
2018-08-04T04:51:24.008Z,27.80
2018-08-04T04:53:53.019Z,27.90
2018-08-04T04:56:21.946Z,27.90
2018-08-04T04:58:50.929Z,27.90
2018-08-04T05:01:19.872Z,27.90
2018-08-04T05:03:48.833Z,27.90
2018-08-04T05:06:20.017Z,27.90
2018-08-04T05:08:49.235Z,27.90
2018-08-04T05:11:18.145Z,27.90
2018-08-04T05:13:47.691Z,27.90
2018-08-04T05:16:17.077Z,27.90
2018-08-04T05:18:46.206Z,27.90
2018-08-04T05:21:15.157Z,27.90
2018-08-04T05:23:44.147Z,27.90
2018-08-04T05:26:13.123Z,27.90
2018-08-04T05:28:42.092Z,27.90
2018-08-04T05:31:11.050Z,27.90
2018-08-04T05:33:39.986Z,28.00
2018-08-04T05:36:08.942Z,27.90
2018-08-04T05:41:06.537Z,28.00
2018-08-04T05:43:35.586Z,28.00
2018-08-04T05:46:04.537Z,28.00
2018-08-04T05:48:33.489Z,28.00
2018-08-04T05:51:02.451Z,28.10
2018-08-04T05:53:31.408Z,28.10
2018-08-04T05:56:00.404Z,28.10
2018-08-04T05:58:29.381Z,28.10
2018-08-04T06:00:58.368Z,28.20
2018-08-04T06:03:27.301Z,28.20
2018-08-04T06:05:56.541Z,28.20
2018-08-04T06:08:25.490Z,28.30
2018-08-04T06:10:54.470Z,28.20
2018-08-04T06:13:23.418Z,28.30
2018-08-04T06:15:52.372Z,28.30
2018-08-04T06:18:21.298Z,28.30
2018-08-04T06:20:50.249Z,28.30
2018-08-04T06:23:19.194Z,28.30
2018-08-04T06:25:48.198Z,28.30
2018-08-04T06:28:17.232Z,28.30
2018-08-04T06:30:46.212Z,28.40
2018-08-04T06:33:15.133Z,28.40
2018-08-04T06:35:44.107Z,28.40
2018-08-04T06:38:13.022Z,28.40
2018-08-04T06:40:42.007Z,28.40
2018-08-04T06:43:10.998Z,28.40
2018-08-04T06:45:39.958Z,28.50
2018-08-04T06:50:37.394Z,28.50
2018-08-04T06:53:07.634Z,28.50
2018-08-04T06:55:36.631Z,28.50
2018-08-04T06:58:05.918Z,28.60
2018-08-04T07:00:35.111Z,28.60
2018-08-04T07:03:04.040Z,28.60
2018-08-04T07:05:32.990Z,28.60
2018-08-04T07:08:02.088Z,28.70
2018-08-04T07:10:31.054Z,28.70
2018-08-04T07:13:00.019Z,28.70
2018-08-04T07:15:28.986Z,28.70
2018-08-04T07:17:57.917Z,28.70
2018-08-04T07:22:55.453Z,28.70
2018-08-04T07:25:24.417Z,28.80
2018-08-04T07:27:53.370Z,28.80
2018-08-04T07:30:22.357Z,28.80
2018-08-04T07:32:51.306Z,28.80
2018-08-04T07:35:20.268Z,28.80
2018-08-04T07:37:49.211Z,28.80
2018-08-04T07:40:18.177Z,28.90
2018-08-04T07:42:47.150Z,28.90
2018-08-04T07:47:44.635Z,28.90
2018-08-04T07:52:42.104Z,28.90
2018-08-04T07:55:11.065Z,29.00
2018-08-04T07:57:40.187Z,29.00
2018-08-04T08:02:37.939Z,29.00
2018-08-04T08:05:07.442Z,29.10
2018-08-04T08:07:36.372Z,29.10
2018-08-04T08:15:04.184Z,29.20
2018-08-04T08:17:33.167Z,29.30
2018-08-04T08:20:02.152Z,29.30
2018-08-04T08:22:38.931Z,29.30
2018-08-04T08:27:37.430Z,29.40
2018-08-04T08:32:36.300Z,29.50
2018-08-04T08:35:06.871Z,29.60
2018-08-04T08:37:35.949Z,29.60
2018-08-04T08:40:05.891Z,29.60
2018-08-04T08:42:34.920Z,29.70
2018-08-04T08:45:04.396Z,29.70
2018-08-04T08:50:01.866Z,29.80
2018-08-04T08:54:59.372Z,29.80
2018-08-04T08:57:28.417Z,29.80
2018-08-04T08:59:57.393Z,29.90
2018-08-04T09:02:26.380Z,29.90
2018-08-04T09:04:55.349Z,29.90
2018-08-04T09:07:24.329Z,29.90
2018-08-04T09:09:53.372Z,29.90
2018-08-04T09:12:22.365Z,29.90
2018-08-04T09:14:51.376Z,30.00
2018-08-04T09:17:20.347Z,30.00
2018-08-04T09:19:49.302Z,30.00
2018-08-04T09:24:46.788Z,30.00
2018-08-04T09:27:15.777Z,30.00
2018-08-04T09:29:44.716Z,30.10
2018-08-04T09:32:13.681Z,30.10
2018-08-04T09:34:42.609Z,30.10
2018-08-04T09:37:11.560Z,30.10
2018-08-04T09:39:40.466Z,30.10
2018-08-04T09:42:09.397Z,30.10
2018-08-04T09:44:38.308Z,30.20
2018-08-04T09:49:35.819Z,30.30
2018-08-04T09:52:04.777Z,30.30
2018-08-04T09:54:33.712Z,30.30
2018-08-04T09:57:02.660Z,30.30
2018-08-04T09:59:31.662Z,30.30
2018-08-04T10:02:05.736Z,30.30
2018-08-04T10:04:34.797Z,30.30
2018-08-04T10:07:03.771Z,30.40
2018-08-04T10:09:32.737Z,30.40
2018-08-04T10:12:02.056Z,30.40
2018-08-04T10:19:28.535Z,30.50
2018-08-04T10:21:57.529Z,30.50
2018-08-04T10:24:26.493Z,30.60
2018-08-04T10:26:55.568Z,30.70
2018-08-04T10:29:24.568Z,30.70
2018-08-04T10:31:53.491Z,30.70
2018-08-04T10:34:22.489Z,30.80
2018-08-04T10:36:51.438Z,30.80
2018-08-04T10:39:20.417Z,30.90
2018-08-04T10:41:49.332Z,30.90
2018-08-04T10:44:18.284Z,31.00
2018-08-04T10:46:47.193Z,31.00
2018-08-04T10:49:16.174Z,31.10
2018-08-04T10:51:45.146Z,31.20
2018-08-04T10:54:14.113Z,31.20
2018-08-04T10:56:43.092Z,31.20
2018-08-04T10:59:12.063Z,31.30
2018-08-04T11:01:41.068Z,31.40
2018-08-04T11:04:10.059Z,31.40
2018-08-04T11:06:39.020Z,31.50
2018-08-04T11:09:09.572Z,31.50
2018-08-04T11:11:38.588Z,31.60
2018-08-04T11:14:08.607Z,31.60
2018-08-04T11:16:38.144Z,31.70
2018-08-04T11:19:07.296Z,31.70
2018-08-04T11:21:36.294Z,31.80
2018-08-04T11:24:05.287Z,31.90
2018-08-04T11:26:34.209Z,32.00
2018-08-04T11:29:03.216Z,32.00
2018-08-04T11:31:32.160Z,32.10
2018-08-04T11:34:01.196Z,32.20
2018-08-04T11:36:30.109Z,32.20
2018-08-04T11:38:59.108Z,32.30
2018-08-04T11:43:56.603Z,32.40
2018-08-04T11:46:25.507Z,32.50
2018-08-04T11:48:54.540Z,32.60
2018-08-04T11:51:23.493Z,32.60
2018-08-04T11:53:52.446Z,32.60
2018-08-04T11:56:21.364Z,32.70
2018-08-04T11:58:50.328Z,32.70
2018-08-04T12:01:19.284Z,32.70
2018-08-04T12:03:48.237Z,32.80
2018-08-04T12:06:17.263Z,32.80
2018-08-04T12:08:46.216Z,32.90
2018-08-04T12:11:15.238Z,32.90
2018-08-04T12:13:44.189Z,33.00
2018-08-04T12:16:13.173Z,33.20
2018-08-04T12:18:42.136Z,33.30
2018-08-04T12:21:11.052Z,33.40
2018-08-04T12:23:40.004Z,33.50
2018-08-04T12:26:08.948Z,33.60
2018-08-04T12:28:38.013Z,33.60
2018-08-04T12:31:07.039Z,33.60
2018-08-04T12:33:36.152Z,33.60
2018-08-04T12:36:05.516Z,33.70
2018-08-04T12:38:35.665Z,33.70
2018-08-04T12:41:04.609Z,33.70
2018-08-04T12:43:33.584Z,33.80
2018-08-04T12:46:02.501Z,33.90
2018-08-04T12:48:31.476Z,34.00
2018-08-04T12:51:01.785Z,34.10
2018-08-04T12:53:30.964Z,34.20
2018-08-04T12:56:00.600Z,34.30
2018-08-04T12:58:29.661Z,34.40
2018-08-04T13:00:58.633Z,34.50
2018-08-04T13:03:27.591Z,34.60
2018-08-04T13:05:56.652Z,34.70
2018-08-04T13:08:25.645Z,34.80
2018-08-04T13:10:54.617Z,34.90
2018-08-04T13:13:23.576Z,35.00
2018-08-04T13:15:52.561Z,35.10
2018-08-04T13:18:21.516Z,35.10
2018-08-04T13:20:50.501Z,35.10
2018-08-04T13:23:19.417Z,35.00
2018-08-04T13:25:48.386Z,34.90
2018-08-04T13:28:17.365Z,34.80
2018-08-04T13:30:46.327Z,34.80
2018-08-04T13:33:15.362Z,34.60
2018-08-04T13:35:44.301Z,34.50
2018-08-04T13:38:13.364Z,34.50
2018-08-04T13:40:42.309Z,34.40
2018-08-04T13:43:11.268Z,34.30
2018-08-04T13:45:40.252Z,34.20
2018-08-04T13:48:09.208Z,34.10
2018-08-04T13:50:38.220Z,34.10
2018-08-04T13:53:07.145Z,34.10
2018-08-04T13:55:36.088Z,34.20
2018-08-04T13:58:05.525Z,34.30
2018-08-04T14:00:34.487Z,34.40
2018-08-04T14:03:03.664Z,34.50
2018-08-04T14:05:32.687Z,34.70
2018-08-04T14:08:01.604Z,34.90
2018-08-04T14:10:30.572Z,35.00
2018-08-04T14:12:59.498Z,35.20
2018-08-04T14:15:28.516Z,35.30
2018-08-04T14:17:58.432Z,35.40
2018-08-04T14:20:27.400Z,35.40
2018-08-04T14:22:56.430Z,35.30
2018-08-04T14:25:26.988Z,35.20
2018-08-04T14:27:55.904Z,35.10
2018-08-04T14:30:24.943Z,35.00
2018-08-04T14:32:53.889Z,34.90
2018-08-04T14:35:22.916Z,34.80
2018-08-04T14:37:51.864Z,34.70
2018-08-04T14:40:20.899Z,34.50
2018-08-04T14:42:49.922Z,34.40
2018-08-04T14:45:18.943Z,34.30
2018-08-04T14:47:47.851Z,34.20
2018-08-04T14:50:16.847Z,34.10
2018-08-04T14:52:45.837Z,34.00
2018-08-04T14:55:14.849Z,33.90
2018-08-04T14:57:43.848Z,33.90
2018-08-04T15:00:12.810Z,33.80
2018-08-04T15:02:41.754Z,33.80
2018-08-04T15:05:11.132Z,33.80
2018-08-04T15:07:40.060Z,33.80
2018-08-04T15:10:09.035Z,33.80
2018-08-04T15:12:37.972Z,33.80
2018-08-04T15:15:07.330Z,33.80
2018-08-04T15:17:36.402Z,33.70
2018-08-04T15:20:06.672Z,33.70
2018-08-04T15:22:36.773Z,33.70
2018-08-04T15:25:06.435Z,33.70
2018-08-04T15:27:35.773Z,33.60
2018-08-04T15:30:04.964Z,33.60
2018-08-04T15:32:34.002Z,33.60
2018-08-04T15:37:33.103Z,33.50
2018-08-04T15:40:02.202Z,33.50
2018-08-04T15:42:31.294Z,33.50
2018-08-04T15:45:00.264Z,33.50
2018-08-04T15:47:29.306Z,33.50
2018-08-04T15:49:58.252Z,33.50
2018-08-04T15:52:27.271Z,33.60
2018-08-04T15:54:56.213Z,33.70
2018-08-04T15:57:25.223Z,33.90
2018-08-04T15:59:54.161Z,34.10
2018-08-04T16:02:23.165Z,34.30
2018-08-04T16:04:52.104Z,34.30
2018-08-04T16:07:21.092Z,34.60
2018-08-04T16:09:50.048Z,34.80
2018-08-04T16:12:19.104Z,34.90
2018-08-04T16:14:48.072Z,35.10
2018-08-04T16:17:17.020Z,35.30
2018-08-04T16:19:45.991Z,35.40
2018-08-04T16:22:14.986Z,35.50
2018-08-04T16:24:46.147Z,35.60
2018-08-04T16:27:15.112Z,35.70
2018-08-04T16:29:44.059Z,35.80
2018-08-04T16:32:13.041Z,35.90
2018-08-04T16:34:42.017Z,36.00
2018-08-04T16:37:11.052Z,36.00
2018-08-04T16:39:40.016Z,36.10
2018-08-04T16:42:09.008Z,36.10
2018-08-04T16:44:37.985Z,36.20
2018-08-04T16:47:06.976Z,36.20
2018-08-04T16:49:35.937Z,36.20
2018-08-04T16:52:04.966Z,36.30
2018-08-04T16:54:33.980Z,36.30
2018-08-04T16:57:03.008Z,36.30
2018-08-04T16:59:32.054Z,36.30
2018-08-04T17:04:29.449Z,36.30
2018-08-04T17:06:58.426Z,36.30
2018-08-04T17:09:27.405Z,36.30
2018-08-04T17:11:56.336Z,36.30
2018-08-04T17:14:25.309Z,36.20
2018-08-04T17:16:54.244Z,36.20
2018-08-04T17:19:23.206Z,36.20
2018-08-04T17:21:52.188Z,36.00
2018-08-04T17:24:21.105Z,36.00
2018-08-04T17:29:18.801Z,35.70
2018-08-04T17:31:47.780Z,35.60
2018-08-04T17:34:16.757Z,35.50
2018-08-04T17:36:45.692Z,35.40
2018-08-04T17:39:14.692Z,35.30
2018-08-04T17:41:43.653Z,35.20
2018-08-04T17:44:12.649Z,35.10
2018-08-04T17:46:41.554Z,35.00
2018-08-04T17:49:10.492Z,34.80
2018-08-04T17:51:39.409Z,34.70
2018-08-04T17:54:08.412Z,34.70
2018-08-04T17:56:37.336Z,34.60
2018-08-04T17:59:06.336Z,34.50
2018-08-04T18:01:35.510Z,34.40
2018-08-04T18:04:04.670Z,34.40
2018-08-04T18:06:33.536Z,34.30
2018-08-04T18:09:02.476Z,34.20
2018-08-04T18:11:31.391Z,34.20
2018-08-04T18:16:28.848Z,34.00
2018-08-04T18:18:57.804Z,34.00
2018-08-04T18:21:26.717Z,33.90
2018-08-04T18:23:55.683Z,33.80
2018-08-04T18:26:24.621Z,33.80
2018-08-04T18:28:53.577Z,33.70
2018-08-04T18:31:22.618Z,33.60
2018-08-04T18:33:51.564Z,33.60
2018-08-04T18:36:20.585Z,33.60
2018-08-04T18:38:49.581Z,33.50
2018-08-04T18:41:18.528Z,33.40
2018-08-04T18:43:47.520Z,33.40
2018-08-04T18:46:16.440Z,33.30
2018-08-04T18:48:45.393Z,33.30
2018-08-04T18:53:42.845Z,33.20
2018-08-04T18:56:11.736Z,33.20
2018-08-04T18:58:40.705Z,33.10
2018-08-04T19:01:09.616Z,33.00
2018-08-04T19:03:38.678Z,33.00
2018-08-04T19:06:07.632Z,33.00
2018-08-04T19:08:36.612Z,32.90
2018-08-04T19:13:34.329Z,32.90
2018-08-04T19:16:03.323Z,32.80
2018-08-04T19:18:32.256Z,32.80
2018-08-04T19:21:01.172Z,32.70
2018-08-04T19:23:30.121Z,32.70
2018-08-04T19:25:59.152Z,32.70
2018-08-04T19:28:28.133Z,32.60
2018-08-04T19:30:57.044Z,32.60
2018-08-04T19:33:25.980Z,32.60
2018-08-04T19:35:54.925Z,32.50
2018-08-04T19:38:23.924Z,32.50
2018-08-04T19:40:52.827Z,32.40
2018-08-04T19:43:21.785Z,32.40
2018-08-04T19:45:51.633Z,32.40
2018-08-04T19:48:20.559Z,32.30
2018-08-04T19:50:49.493Z,32.30
2018-08-04T19:53:18.441Z,32.20
2018-08-04T19:55:47.377Z,32.20
2018-08-04T19:58:16.348Z,32.20
2018-08-04T20:00:45.289Z,32.10
2018-08-04T20:03:14.220Z,32.10
2018-08-04T20:05:43.180Z,32.10
2018-08-04T20:10:40.625Z,32.00
2018-08-04T20:13:09.538Z,32.00
2018-08-04T20:15:38.538Z,31.90
2018-08-04T20:18:07.469Z,31.90
2018-08-04T20:20:36.412Z,31.90
2018-08-04T20:23:05.371Z,31.90
2018-08-04T20:25:34.343Z,31.80
2018-08-04T20:28:03.268Z,31.80
2018-08-04T20:30:32.235Z,31.70
2018-08-04T20:33:01.153Z,31.70
2018-08-04T20:35:30.099Z,31.60
2018-08-04T20:37:59.021Z,31.60
2018-08-04T20:40:27.973Z,31.50
2018-08-04T20:42:56.948Z,31.50
2018-08-04T20:45:25.940Z,31.50
2018-08-04T20:47:54.883Z,31.40
2018-08-04T20:50:23.870Z,31.40
2018-08-04T20:52:52.818Z,31.30
2018-08-04T20:55:21.819Z,31.30
2018-08-04T20:57:50.744Z,31.30
2018-08-04T21:00:19.724Z,31.20
2018-08-04T21:02:48.686Z,31.20
2018-08-04T21:05:17.677Z,31.20
2018-08-04T21:07:46.597Z,31.10
2018-08-04T21:10:15.550Z,31.10
2018-08-04T21:12:44.470Z,31.00
2018-08-04T21:15:13.408Z,31.00
2018-08-04T21:17:42.332Z,31.00
2018-08-04T21:20:11.355Z,30.90
2018-08-04T21:22:40.282Z,30.90
2018-08-04T21:25:09.325Z,30.80
2018-08-04T21:27:38.239Z,30.70
2018-08-04T21:30:07.613Z,30.70
2018-08-04T21:32:36.556Z,30.60
2018-08-04T21:35:05.546Z,30.50
2018-08-04T21:37:34.475Z,30.50
2018-08-04T21:40:03.444Z,30.50
2018-08-04T21:45:00.876Z,30.40
2018-08-04T21:47:29.793Z,30.40
2018-08-04T21:49:58.754Z,30.40
2018-08-04T21:52:27.773Z,30.30
2018-08-04T21:54:56.745Z,30.30
2018-08-04T21:57:25.770Z,30.30
2018-08-04T21:59:54.752Z,30.30
2018-08-04T22:02:23.762Z,30.30
2018-08-04T22:04:52.705Z,30.30
2018-08-04T22:07:41.965Z,30.20
2018-08-04T22:10:11.667Z,30.20
2018-08-04T22:12:40.932Z,30.20
2018-08-04T22:15:11.097Z,30.10
2018-08-04T22:17:40.056Z,30.10
2018-08-04T22:20:10.973Z,30.10
2018-08-04T22:22:40.493Z,30.10
2018-08-04T22:25:11.633Z,30.10
2018-08-04T22:27:40.608Z,30.10
2018-08-04T22:30:11.401Z,30.00
2018-08-04T22:32:40.671Z,30.00
2018-08-04T22:35:09.623Z,30.00
2018-08-04T22:37:39.296Z,30.00
2018-08-04T22:42:38.013Z,30.00
2018-08-04T22:45:53.397Z,30.00
2018-08-04T22:48:22.865Z,30.00
2018-08-04T22:50:51.793Z,30.00
2018-08-04T22:53:20.744Z,29.90
2018-08-04T22:55:49.708Z,29.90
2018-08-04T22:58:18.628Z,29.90
2018-08-04T23:00:47.576Z,29.80
2018-08-04T23:03:16.497Z,29.80
2018-08-04T23:05:45.452Z,29.70
2018-08-04T23:08:14.709Z,29.60
2018-08-04T23:10:44.262Z,29.60
2018-08-04T23:13:13.726Z,29.50
2018-08-04T23:15:42.648Z,29.50
2018-08-04T23:18:11.734Z,29.50
2018-08-04T23:20:40.677Z,29.40
2018-08-04T23:23:10.857Z,29.40
2018-08-04T23:25:39.783Z,29.30
2018-08-04T23:28:09.269Z,29.30
2018-08-04T23:30:38.218Z,29.30
2018-08-04T23:33:07.208Z,29.20
2018-08-04T23:35:36.125Z,29.20
2018-08-04T23:38:05.081Z,29.20
2018-08-04T23:40:34.000Z,29.20
2018-08-04T23:43:02.985Z,29.00
2018-08-04T23:45:31.907Z,29.10
2018-08-04T23:48:00.868Z,29.10
2018-08-04T23:50:29.772Z,29.10
2018-08-04T23:52:58.722Z,29.00
2018-08-04T23:55:27.663Z,29.00
2018-08-04T23:57:56.625Z,29.00
